createdAt,value
2023-05-15T00:01:48.622Z,4.18
2023-05-15T00:04:15.040Z,4.55
2023-05-15T00:06:41.465Z,4.43
2023-05-15T00:09:08.771Z,4.18
2023-05-15T00:14:01.544Z,4.32
2023-05-15T00:16:28.542Z,4.28
2023-05-15T00:18:55.017Z,4.43
2023-05-15T00:21:21.456Z,4.43
2023-05-15T00:23:47.857Z,4.35
2023-05-15T00:26:15.765Z,4.38
2023-05-15T00:28:42.177Z,3.97
2023-05-15T00:31:09.009Z,5.50
2023-05-15T00:33:35.554Z,4.50
2023-05-15T00:36:02.996Z,4.47
2023-05-15T00:38:29.392Z,5.00
2023-05-15T00:40:56.203Z,4.68
2023-05-15T00:43:23.668Z,4.70
2023-05-15T00:45:50.378Z,4.80
2023-05-15T00:48:16.969Z,5.32
2023-05-15T00:50:43.902Z,5.05
2023-05-15T00:53:10.930Z,4.82
2023-05-15T00:55:37.554Z,4.95
2023-05-15T00:58:04.177Z,4.72
2023-05-15T01:00:33.007Z,5.30
2023-05-15T01:02:59.854Z,5.32
2023-05-15T01:05:27.629Z,4.60
2023-05-15T01:08:14.303Z,5.22
2023-05-15T01:10:42.871Z,5.18
2023-05-15T01:13:10.090Z,4.47
2023-05-15T01:15:36.505Z,5.28
2023-05-15T01:18:03.461Z,4.20
2023-05-15T01:20:34.391Z,5.30
2023-05-15T01:23:08.033Z,4.82
2023-05-15T01:25:43.666Z,4.97
2023-05-15T01:28:12.272Z,4.65
2023-05-15T01:30:40.692Z,5.13
2023-05-15T01:33:17.279Z,5.35
2023-05-15T01:35:45.372Z,5.13
2023-05-15T01:38:19.172Z,5.50
2023-05-15T01:40:47.702Z,4.63
2023-05-15T01:43:27.697Z,5.20
2023-05-15T01:45:55.102Z,5.05
2023-05-15T01:48:22.775Z,4.97
2023-05-15T01:50:50.936Z,4.95
2023-05-15T01:53:18.855Z,4.60
2023-05-15T01:55:45.613Z,5.47
2023-05-15T01:58:13.272Z,5.65
2023-05-15T02:00:39.998Z,5.63
2023-05-15T02:03:06.948Z,5.43
2023-05-15T02:05:34.228Z,6.03
2023-05-15T02:08:02.309Z,6.30
2023-05-15T02:10:28.951Z,5.57
2023-05-15T02:12:55.703Z,6.00
2023-05-15T02:15:23.727Z,5.70
2023-05-15T02:17:50.866Z,7.00
2023-05-15T02:20:17.551Z,6.68
2023-05-15T02:22:43.969Z,6.13
2023-05-15T02:25:10.513Z,6.00
2023-05-15T02:27:43.098Z,5.53
2023-05-15T02:30:27.164Z,6.20
2023-05-15T02:32:59.212Z,5.78
2023-05-15T02:35:33.714Z,5.90
2023-05-15T02:38:02.676Z,7.05
2023-05-15T02:40:30.217Z,7.20
2023-05-15T02:42:56.909Z,6.30
2023-05-15T02:45:24.210Z,6.68
2023-05-15T02:47:51.598Z,6.15
2023-05-15T02:50:18.524Z,6.03
2023-05-15T02:52:44.993Z,6.60
2023-05-15T02:55:11.404Z,6.30
2023-05-15T02:57:37.947Z,6.43
2023-05-15T03:00:07.414Z,5.90
2023-05-15T03:02:33.998Z,6.30
2023-05-15T03:05:00.682Z,6.13
2023-05-15T03:07:27.216Z,6.20
2023-05-15T03:09:53.722Z,7.18
2023-05-15T03:12:20.108Z,7.07
2023-05-15T03:14:46.552Z,7.30
2023-05-15T03:17:13.001Z,8.38
2023-05-15T03:19:39.415Z,7.43
2023-05-15T03:22:06.035Z,9.63
2023-05-15T03:24:32.478Z,9.63
2023-05-15T03:26:59.295Z,8.90
2023-05-15T03:29:25.808Z,9.07
2023-05-15T03:31:52.388Z,8.18
2023-05-15T03:34:18.899Z,8.35
2023-05-15T03:36:45.571Z,9.25
2023-05-15T03:39:12.060Z,7.28
2023-05-15T03:41:38.527Z,8.95
2023-05-15T03:44:05.028Z,7.72
2023-05-15T03:46:31.484Z,8.10
2023-05-15T03:48:58.329Z,8.07
2023-05-15T03:51:26.101Z,8.32
2023-05-15T03:53:53.373Z,8.00
2023-05-15T03:56:22.708Z,7.82
2023-05-15T03:58:49.196Z,7.72
2023-05-15T04:01:15.661Z,8.77
2023-05-15T04:03:42.182Z,8.48
2023-05-15T04:06:08.696Z,8.50
2023-05-15T04:08:35.174Z,7.97
2023-05-15T04:11:01.672Z,7.88
2023-05-15T04:13:28.092Z,7.85
2023-05-15T04:15:55.133Z,8.77
2023-05-15T04:18:21.618Z,8.07
2023-05-15T04:20:48.116Z,7.40
2023-05-15T04:23:14.567Z,7.25
2023-05-15T04:25:46.082Z,7.80
2023-05-15T04:28:13.053Z,7.65
2023-05-15T04:30:39.635Z,8.68
2023-05-15T04:33:06.136Z,8.05
2023-05-15T04:35:32.684Z,10.32
2023-05-15T04:37:59.142Z,9.88
2023-05-15T04:40:25.678Z,7.93
2023-05-15T04:42:52.102Z,8.60
2023-05-15T04:45:18.741Z,9.32
2023-05-15T04:47:45.279Z,8.88
2023-05-15T04:50:11.829Z,8.63
2023-05-15T04:52:38.327Z,8.43
2023-05-15T04:55:05.058Z,9.35
2023-05-15T04:57:31.492Z,9.65
2023-05-15T04:59:58.198Z,8.13
2023-05-15T05:02:24.828Z,7.85
2023-05-15T05:04:51.390Z,8.30
2023-05-15T05:07:17.838Z,8.63
2023-05-15T05:09:44.486Z,8.50
2023-05-15T05:12:11.021Z,8.35
2023-05-15T05:14:37.539Z,9.27
2023-05-15T05:17:04.147Z,8.88
2023-05-15T05:19:30.934Z,8.98
2023-05-15T05:22:01.355Z,8.40
2023-05-15T05:24:28.487Z,8.35
2023-05-15T05:26:55.189Z,9.00
2023-05-15T05:29:21.612Z,7.97
2023-05-15T05:31:48.115Z,8.23
2023-05-15T05:34:14.734Z,8.73
2023-05-15T05:36:41.338Z,8.52
2023-05-15T05:39:07.855Z,7.45
2023-05-15T05:41:34.826Z,8.70
2023-05-15T05:44:01.374Z,9.05
2023-05-15T05:46:28.222Z,8.07
2023-05-15T05:48:54.892Z,8.68
2023-05-15T05:51:21.561Z,8.23
2023-05-15T05:53:48.047Z,8.98
2023-05-15T05:56:14.528Z,8.65
2023-05-15T05:58:41.141Z,8.48
2023-05-15T06:01:07.795Z,8.13
2023-05-15T06:03:34.591Z,7.97
2023-05-15T06:06:01.204Z,8.45
2023-05-15T06:08:29.443Z,10.25
2023-05-15T06:10:56.020Z,8.68
2023-05-15T06:13:23.106Z,11.13
2023-05-15T06:15:49.590Z,7.45
2023-05-15T06:18:16.069Z,8.00
2023-05-15T06:20:43.092Z,7.30
2023-05-15T06:23:09.748Z,7.85
2023-05-15T06:25:36.540Z,6.55
2023-05-15T06:28:03.575Z,6.63
2023-05-15T06:30:30.122Z,6.20
2023-05-15T06:32:56.639Z,5.85
2023-05-15T06:35:26.377Z,6.05
2023-05-15T06:37:53.317Z,6.57
2023-05-15T06:40:20.554Z,5.75
2023-05-15T06:42:47.299Z,6.22
2023-05-15T06:45:13.936Z,6.28
2023-05-15T06:47:40.520Z,6.00
2023-05-15T06:50:07.337Z,5.85
2023-05-15T06:52:33.816Z,6.55
2023-05-15T06:55:00.246Z,5.80
2023-05-15T06:57:26.926Z,6.05
2023-05-15T06:59:53.437Z,6.90
2023-05-15T07:02:20.055Z,7.15
2023-05-15T07:04:46.569Z,5.63
2023-05-15T07:07:13.130Z,6.90
2023-05-15T07:09:39.712Z,6.03
2023-05-15T07:12:06.420Z,6.45
2023-05-15T07:14:34.083Z,6.65
2023-05-15T07:17:00.695Z,6.30
2023-05-15T07:19:27.245Z,6.22
2023-05-15T07:21:53.793Z,5.82
2023-05-15T07:24:20.210Z,6.00
2023-05-15T07:26:57.594Z,6.82
2023-05-15T07:29:25.058Z,6.00
2023-05-15T07:31:51.570Z,6.07
2023-05-15T07:34:18.071Z,6.13
2023-05-15T07:36:44.681Z,6.65
2023-05-15T07:39:11.225Z,7.00
2023-05-15T07:41:37.752Z,7.03
2023-05-15T07:44:04.328Z,7.22
2023-05-15T07:46:30.810Z,7.50
2023-05-15T07:48:57.370Z,7.25
2023-05-15T07:51:23.850Z,7.68
2023-05-15T07:53:50.578Z,7.30
2023-05-15T07:56:17.102Z,7.40
2023-05-15T07:58:43.704Z,7.43
2023-05-15T08:01:10.299Z,7.60
2023-05-15T08:03:36.920Z,7.32
2023-05-15T08:06:03.710Z,8.35
2023-05-15T08:08:30.859Z,7.70
2023-05-15T08:10:57.327Z,7.82
2023-05-15T08:13:24.011Z,7.80
2023-05-15T08:15:50.636Z,8.05
2023-05-15T08:18:17.191Z,7.55
2023-05-15T08:20:43.770Z,8.70
2023-05-15T08:23:10.283Z,8.25
2023-05-15T08:25:36.774Z,7.68
2023-05-15T08:28:04.383Z,7.30
2023-05-15T08:30:30.828Z,7.75
2023-05-15T08:32:57.352Z,7.10
2023-05-15T08:35:23.979Z,6.85
2023-05-15T08:37:50.720Z,7.38
2023-05-15T08:40:18.618Z,7.43
2023-05-15T08:42:53.845Z,6.93
2023-05-15T08:45:20.415Z,7.00
2023-05-15T08:47:47.105Z,6.60
2023-05-15T08:50:15.399Z,6.88
2023-05-15T08:52:42.930Z,6.82
2023-05-15T08:55:10.881Z,6.85
2023-05-15T08:57:38.924Z,7.20
2023-05-15T09:00:09.123Z,6.78
2023-05-15T09:02:36.827Z,6.78
2023-05-15T09:05:03.689Z,6.32
2023-05-15T09:07:33.705Z,6.70
2023-05-15T09:10:01.452Z,6.13
2023-05-15T09:12:28.299Z,6.38
2023-05-15T09:15:10.027Z,6.45
2023-05-15T09:17:38.797Z,6.03
2023-05-15T09:20:08.622Z,6.07
2023-05-15T09:22:36.291Z,5.57
2023-05-15T09:25:04.140Z,5.72
2023-05-15T09:27:30.850Z,5.95
2023-05-15T09:30:07.811Z,5.80
2023-05-15T09:32:34.409Z,5.93
2023-05-15T09:35:00.912Z,5.78
2023-05-15T09:37:28.903Z,5.78
2023-05-15T09:39:55.810Z,6.50
2023-05-15T09:42:24.561Z,5.97
2023-05-15T09:44:51.170Z,5.47
2023-05-15T09:47:18.038Z,5.70
2023-05-15T09:49:45.367Z,6.00
2023-05-15T09:52:12.022Z,6.07
2023-05-15T09:54:38.746Z,5.35
2023-05-15T09:57:09.691Z,5.25
2023-05-15T09:59:36.206Z,5.70
2023-05-15T10:02:02.721Z,5.95
2023-05-15T10:04:34.387Z,6.18
2023-05-15T10:07:00.832Z,5.78
2023-05-15T10:09:30.117Z,6.30
2023-05-15T10:11:58.540Z,6.10
2023-05-15T10:14:26.519Z,5.80
2023-05-15T10:16:53.222Z,5.93
2023-05-15T10:19:21.781Z,6.53
2023-05-15T10:21:48.538Z,5.85
2023-05-15T10:24:16.381Z,5.90
2023-05-15T10:26:43.518Z,6.68
2023-05-15T10:29:13.885Z,5.40
2023-05-15T10:31:40.876Z,5.20
2023-05-15T10:34:08.266Z,5.70
2023-05-15T10:39:02.056Z,5.75
2023-05-15T10:41:32.879Z,5.82
2023-05-15T10:43:59.789Z,5.95
2023-05-15T10:46:27.521Z,5.47
2023-05-15T10:48:54.228Z,5.57
2023-05-15T10:51:33.007Z,5.90
2023-05-15T10:54:00.427Z,5.75
2023-05-15T10:56:29.421Z,5.88
2023-05-15T10:58:58.414Z,5.85
2023-05-15T11:01:35.361Z,5.78
2023-05-15T11:04:08.260Z,6.13
2023-05-15T11:06:35.211Z,5.75
2023-05-15T11:09:19.888Z,6.03
2023-05-15T11:11:52.529Z,5.65
2023-05-15T11:14:19.568Z,5.95
2023-05-15T11:16:55.089Z,5.90
2023-05-15T11:19:24.828Z,5.35
2023-05-15T11:21:58.148Z,5.55
2023-05-15T11:26:52.288Z,6.05
2023-05-15T11:29:19.338Z,6.18
2023-05-15T11:31:45.735Z,6.30
2023-05-15T11:34:12.247Z,5.90
2023-05-15T11:36:43.618Z,6.05
2023-05-15T11:39:10.602Z,5.63
2023-05-15T11:41:37.548Z,5.22
2023-05-15T11:44:04.006Z,5.43
2023-05-15T11:46:31.877Z,5.90
2023-05-15T11:48:59.501Z,5.55
2023-05-15T11:51:27.438Z,5.50
2023-05-15T11:56:21.668Z,5.25
2023-05-15T11:58:51.807Z,5.18
2023-05-15T12:01:18.543Z,5.43
2023-05-15T12:03:47.409Z,6.25
2023-05-15T12:06:14.201Z,5.38
2023-05-15T12:08:42.112Z,5.90
2023-05-15T12:11:08.773Z,5.57
2023-05-15T12:13:35.333Z,5.00
2023-05-15T12:16:03.388Z,5.25
2023-05-15T12:18:31.748Z,4.95
2023-05-15T12:20:58.387Z,5.03
2023-05-15T12:23:25.581Z,5.13
2023-05-15T12:25:55.097Z,5.55
2023-05-15T12:28:22.044Z,5.25
2023-05-15T12:30:49.359Z,5.28
2023-05-15T12:35:43.480Z,5.30
2023-05-15T12:38:13.849Z,5.03
2023-05-15T12:40:40.852Z,4.80
2023-05-15T12:43:07.761Z,5.20
2023-05-15T12:45:36.266Z,4.95
2023-05-15T12:48:03.922Z,4.90
2023-05-15T12:50:32.347Z,4.78
2023-05-15T12:53:00.661Z,5.00
2023-05-15T12:55:28.638Z,4.63
2023-05-15T12:57:58.779Z,4.95
2023-05-15T13:00:25.868Z,5.00
2023-05-15T13:05:19.275Z,4.38
2023-05-15T13:07:45.896Z,4.47
2023-05-15T13:10:12.550Z,4.70
2023-05-15T13:12:48.393Z,4.78
2023-05-15T13:15:31.691Z,4.63
2023-05-15T13:18:08.704Z,4.40
2023-05-15T13:20:35.226Z,4.60
2023-05-15T13:23:02.132Z,4.25
2023-05-15T13:25:31.356Z,4.13
2023-05-15T13:27:59.219Z,4.40
2023-05-15T13:30:26.261Z,4.20
2023-05-15T13:32:55.536Z,4.05
2023-05-15T13:35:22.546Z,4.70
2023-05-15T13:37:49.467Z,4.30
2023-05-15T13:40:15.946Z,4.32
2023-05-15T13:42:43.298Z,4.15
2023-05-15T13:45:10.818Z,3.83
2023-05-15T13:47:39.871Z,4.03
2023-05-15T13:50:07.706Z,3.85
2023-05-15T13:52:34.211Z,4.15
2023-05-15T13:55:00.825Z,4.20
2023-05-15T13:57:27.299Z,4.38
2023-05-15T13:59:53.689Z,4.07
2023-05-15T14:02:21.301Z,4.03
2023-05-15T14:04:48.142Z,4.00
2023-05-15T14:07:14.667Z,4.05
2023-05-15T14:09:41.179Z,3.92
2023-05-15T14:12:10.495Z,4.22
2023-05-15T14:14:37.298Z,4.32
2023-05-15T14:17:03.944Z,4.10
2023-05-15T14:19:30.591Z,3.85
2023-05-15T14:21:57.127Z,3.97
2023-05-15T14:24:23.630Z,3.88
2023-05-15T14:26:50.127Z,4.28
2023-05-15T14:29:16.628Z,3.85
2023-05-15T14:31:43.418Z,4.15
2023-05-15T14:34:10.066Z,4.00
2023-05-15T14:36:36.542Z,4.10
2023-05-15T14:39:04.175Z,3.78
2023-05-15T14:41:30.789Z,4.15
2023-05-15T14:43:57.206Z,3.90
2023-05-15T14:46:23.716Z,3.60
2023-05-15T14:48:50.219Z,4.00
2023-05-15T14:51:19.078Z,4.35
2023-05-15T14:53:46.159Z,3.88
2023-05-15T14:56:12.652Z,4.05
2023-05-15T14:58:39.179Z,3.97
2023-05-15T15:01:05.888Z,4.00
2023-05-15T15:03:34.090Z,4.00
2023-05-15T15:06:01.480Z,3.80
2023-05-15T15:08:28.100Z,3.92
2023-05-15T15:10:54.552Z,3.83
2023-05-15T15:13:21.178Z,4.03
2023-05-15T15:15:48.263Z,3.80
2023-05-15T15:18:14.830Z,3.85
2023-05-15T15:20:41.417Z,3.60
2023-05-15T15:23:07.886Z,4.30
2023-05-15T15:25:34.693Z,3.58
2023-05-15T15:28:01.996Z,3.83
2023-05-15T15:32:55.769Z,3.97
2023-05-15T15:37:48.972Z,3.83
2023-05-15T15:40:15.755Z,4.00
2023-05-15T15:42:42.231Z,3.67
2023-05-15T15:45:08.854Z,3.85
2023-05-15T15:47:35.441Z,3.60
2023-05-15T15:50:01.964Z,3.53
2023-05-15T15:52:28.472Z,3.70
2023-05-15T15:54:54.999Z,3.40
2023-05-15T15:57:21.876Z,3.65
2023-05-15T15:59:49.249Z,3.53
2023-05-15T16:02:15.868Z,3.60
2023-05-15T16:04:42.288Z,3.60
2023-05-15T16:07:08.731Z,3.45
2023-05-15T16:09:35.378Z,3.50
2023-05-15T16:12:03.320Z,3.53
2023-05-15T16:14:31.535Z,3.45
2023-05-15T16:16:58.575Z,3.38
2023-05-15T16:19:25.248Z,3.40
2023-05-15T16:21:51.824Z,3.63
2023-05-15T16:24:18.437Z,3.45
2023-05-15T16:26:44.916Z,3.30
2023-05-15T16:29:11.402Z,3.30
2023-05-15T16:31:38.438Z,3.90
2023-05-15T16:34:05.076Z,3.33
2023-05-15T16:36:32.016Z,3.38
2023-05-15T16:38:59.783Z,3.63
2023-05-15T16:41:26.483Z,3.47
2023-05-15T16:43:53.088Z,3.45
2023-05-15T16:46:19.637Z,3.50
2023-05-15T16:48:46.177Z,3.90
2023-05-15T16:51:12.671Z,3.38
2023-05-15T16:53:40.806Z,3.35
2023-05-15T16:56:07.602Z,3.45
2023-05-15T16:58:34.748Z,3.70
2023-05-15T17:01:01.329Z,3.30
2023-05-15T17:03:27.960Z,3.50
2023-05-15T17:05:54.457Z,3.70
2023-05-15T17:08:20.898Z,3.38
2023-05-15T17:10:47.465Z,3.28
2023-05-15T17:13:14.530Z,3.53
2023-05-15T17:15:41.345Z,3.35
2023-05-15T17:18:08.299Z,3.10
2023-05-15T17:20:34.827Z,3.30
2023-05-15T17:23:01.344Z,3.33
2023-05-15T17:25:27.924Z,3.35
2023-05-15T17:27:55.716Z,2.95
2023-05-15T17:30:22.338Z,3.38
2023-05-15T17:32:48.974Z,3.22
2023-05-15T17:35:15.841Z,3.20
2023-05-15T17:37:42.631Z,3.10
2023-05-15T17:40:09.297Z,2.97
2023-05-15T17:42:36.233Z,2.97
2023-05-15T17:45:03.052Z,3.10
2023-05-15T17:47:32.066Z,2.90
2023-05-15T17:49:58.519Z,2.85
2023-05-15T17:52:25.091Z,2.58
2023-05-15T17:54:51.575Z,2.78
2023-05-15T17:57:18.007Z,3.10
2023-05-15T17:59:44.591Z,2.60
2023-05-15T18:02:11.270Z,2.60
2023-05-15T18:04:37.909Z,2.80
2023-05-15T18:07:04.517Z,2.80
2023-05-15T18:09:31.036Z,3.08
2023-05-15T18:11:57.855Z,2.50
2023-05-15T18:14:24.432Z,2.70
2023-05-15T18:16:51.220Z,2.30
2023-05-15T18:19:18.233Z,2.53
2023-05-15T18:21:44.867Z,2.50
2023-05-15T18:24:11.400Z,2.60
2023-05-15T18:26:38.110Z,2.40
2023-05-15T18:29:04.860Z,2.53
2023-05-15T18:31:31.465Z,2.33
2023-05-15T18:33:57.925Z,2.35
2023-05-15T18:36:24.411Z,2.47
2023-05-15T18:38:50.896Z,2.10
2023-05-15T18:41:17.399Z,2.35
2023-05-15T18:43:43.843Z,2.30
2023-05-15T18:46:10.360Z,2.00
2023-05-15T18:48:36.877Z,2.30
2023-05-15T18:51:03.876Z,2.33
2023-05-15T18:53:34.792Z,2.20
2023-05-15T18:56:01.279Z,2.60
2023-05-15T18:58:27.755Z,2.13
2023-05-15T19:00:56.367Z,2.10
2023-05-15T19:03:22.908Z,2.25
2023-05-15T19:05:49.511Z,2.17
2023-05-15T19:08:16.005Z,2.10
2023-05-15T19:10:47.247Z,2.08
2023-05-15T19:13:13.717Z,2.10
2023-05-15T19:15:40.149Z,1.90
2023-05-15T19:18:06.702Z,2.03
2023-05-15T19:20:33.986Z,1.80
2023-05-15T19:23:00.489Z,1.90
2023-05-15T19:25:27.103Z,2.00
2023-05-15T19:27:54.290Z,1.75
2023-05-15T19:30:20.992Z,2.03
2023-05-15T19:32:47.498Z,2.00
2023-05-15T19:35:14.141Z,1.70
2023-05-15T19:37:40.806Z,1.90
2023-05-15T19:40:07.575Z,1.92
2023-05-15T19:42:34.127Z,2.10
2023-05-15T19:45:00.566Z,1.90
2023-05-15T19:47:27.437Z,1.77
2023-05-15T19:49:53.995Z,1.98
2023-05-15T19:52:20.458Z,1.80
2023-05-15T19:54:46.952Z,1.45
2023-05-15T19:57:13.353Z,1.90
2023-05-15T19:59:39.862Z,1.63
2023-05-15T20:02:10.458Z,1.60
2023-05-15T20:04:37.620Z,1.67
2023-05-15T20:07:04.410Z,1.60
2023-05-15T20:09:30.976Z,1.83
2023-05-15T20:11:57.436Z,1.50
2023-05-15T20:14:23.995Z,1.55
2023-05-15T20:16:50.536Z,1.40
2023-05-15T20:19:17.104Z,1.20
2023-05-15T20:21:43.794Z,1.45
2023-05-15T20:24:10.331Z,1.42
2023-05-15T20:26:36.955Z,1.40
2023-05-15T20:29:03.589Z,1.42
2023-05-15T20:31:30.309Z,1.30
2023-05-15T20:33:56.975Z,1.40
2023-05-15T20:36:25.568Z,1.23
2023-05-15T20:38:55.916Z,1.50
2023-05-15T20:41:23.191Z,1.50
2023-05-15T20:46:17.062Z,1.20
2023-05-15T20:51:10.204Z,1.20
2023-05-15T20:53:36.666Z,1.20
2023-05-15T20:56:03.302Z,1.25
2023-05-15T20:58:29.743Z,1.30
2023-05-15T21:00:56.389Z,1.30
2023-05-15T21:03:22.981Z,1.40
2023-05-15T21:05:49.563Z,1.30
2023-05-15T21:08:16.416Z,1.30
2023-05-15T21:10:45.280Z,1.30
2023-05-15T21:13:11.985Z,1.20
2023-05-15T21:15:39.662Z,1.10
2023-05-15T21:18:06.214Z,1.00
2023-05-15T21:20:35.078Z,1.20
2023-05-15T21:23:01.821Z,1.20
2023-05-15T21:25:28.313Z,1.20
2023-05-15T21:27:55.376Z,1.15
2023-05-15T21:30:21.894Z,1.10
2023-05-15T21:32:48.357Z,1.00
2023-05-15T21:35:14.840Z,1.13
2023-05-15T21:37:41.261Z,1.10
2023-05-15T21:40:08.026Z,1.10
2023-05-15T21:42:34.541Z,1.15
2023-05-15T21:45:01.003Z,1.20
2023-05-15T21:47:27.418Z,1.05
2023-05-15T21:49:53.923Z,1.23
2023-05-15T21:52:20.351Z,1.27
2023-05-15T21:54:46.740Z,1.20
2023-05-15T21:57:13.138Z,1.38
2023-05-15T21:59:39.604Z,1.20
2023-05-15T22:02:06.541Z,1.23
2023-05-15T22:04:33.214Z,1.00
2023-05-15T22:06:59.608Z,1.20
2023-05-15T22:09:26.042Z,1.02
2023-05-15T22:11:52.450Z,1.20
2023-05-15T22:14:18.860Z,1.20
2023-05-15T22:16:45.469Z,1.20
2023-05-15T22:19:25.058Z,1.20
2023-05-15T22:21:58.662Z,1.00
2023-05-15T22:24:25.103Z,0.80
2023-05-15T22:26:51.499Z,1.20
2023-05-15T22:29:17.926Z,1.13
2023-05-15T22:31:44.386Z,1.30
2023-05-15T22:34:11.021Z,1.20
2023-05-15T22:36:37.590Z,1.10
2023-05-15T22:39:07.718Z,1.10
2023-05-15T22:41:34.212Z,1.23
2023-05-15T22:44:00.797Z,1.20
2023-05-15T22:46:27.531Z,1.00
2023-05-15T22:48:54.920Z,1.20
2023-05-15T22:51:22.215Z,1.20
2023-05-15T22:53:48.787Z,1.00
2023-05-15T22:56:15.269Z,1.20
2023-05-15T22:58:41.902Z,1.30
2023-05-15T23:01:09.191Z,1.00
2023-05-15T23:03:35.699Z,1.23
2023-05-15T23:06:02.192Z,1.20
2023-05-15T23:08:28.764Z,1.10
2023-05-15T23:10:56.240Z,1.20
2023-05-15T23:13:23.539Z,1.30
2023-05-15T23:15:50.020Z,1.20
2023-05-15T23:18:17.292Z,1.20
2023-05-15T23:20:46.030Z,1.05
2023-05-15T23:23:12.501Z,1.23
2023-05-15T23:25:39.035Z,1.27
2023-05-15T23:28:05.534Z,1.10
2023-05-15T23:30:32.138Z,1.15
2023-05-15T23:32:58.652Z,1.20
2023-05-15T23:35:25.266Z,1.23
2023-05-15T23:37:51.911Z,1.10
2023-05-15T23:40:18.417Z,1.00
2023-05-15T23:42:44.920Z,1.27
2023-05-15T23:45:11.437Z,1.10
2023-05-15T23:47:37.894Z,1.00
2023-05-15T23:50:04.694Z,1.15
2023-05-15T23:52:36.479Z,1.30
2023-05-15T23:55:03.345Z,1.15
2023-05-15T23:57:29.782Z,1.27
2023-05-15T23:59:56.238Z,1.10
